Time;durP1;ratioP1;P1;durP2;ratioP2;P2;SDS_P1;SDS_P2;PMS_P1;PMS_P2;Temp;Humidity;BMP_temperature;BMP_pressure;BME280_temperature;BME280_humidity;BME280_pressure;Samples;Min_cycle;Max_cycle;Signal;HPM_P1;HPM_P2
2022/01/07 00:01:19;;;;;;;37.85;19.52;;;;;;;;;;5076040;28;20039;-60
2022/01/07 00:03:47;;;;;;;40.20;19.55;;;;;;;;;;5095384;28;20043;-61
2022/01/07 00:06:13;;;;;;;38.33;20.08;;;;;;;;;;5096313;28;20028;-60
2022/01/07 00:08:39;;;;;;;32.58;18.02;;;;;;;;;;5096261;28;20028;-60
2022/01/07 00:11:06;;;;;;;33.53;16.58;;;;;;;;;;5096353;28;20059;-60
2022/01/07 00:13:32;;;;;;;32.83;17.33;;;;;;;;;;5096058;28;20107;-60
2022/01/07 00:15:58;;;;;;;33.38;16.73;;;;;;;;;;5088601;28;20364;-60
2022/01/07 00:18:24;;;;;;;28.90;16.80;;;;;;;;;;5092748;28;20378;-60
2022/01/07 00:20:52;;;;;;;27.52;15.70;;;;;;;;;;5096145;28;20038;-59
2022/01/07 00:23:18;;;;;;;28.67;15.98;;;;;;;;;;5095894;28;20024;-60
2022/01/07 00:25:44;;;;;;;34.35;16.38;;;;;;;;;;5095919;28;20467;-60
2022/01/07 00:28:10;;;;;;;36.17;16.50;;;;;;;;;;5095526;28;20028;-60
2022/01/07 00:30:38;;;;;;;29.75;14.85;;;;;;;;;;5095433;28;20111;-60
2022/01/07 00:33:05;;;;;;;26.70;13.88;;;;;;;;;;5096025;28;20028;-61
2022/01/07 00:35:31;;;;;;;23.88;14.13;;;;;;;;;;5096008;28;20031;-60
2022/01/07 00:37:57;;;;;;;28.08;13.98;;;;;;;;;;5095696;28;20030;-60
2022/01/07 00:40:24;;;;;;;28.55;14.45;;;;;;;;;;5095803;28;20043;-60
2022/01/07 00:42:51;;;;;;;27.27;14.55;;;;;;;;;;5095464;28;20063;-60
2022/01/07 00:45:17;;;;;;;25.85;13.65;;;;;;;;;;5095777;28;20108;-60
2022/01/07 00:47:44;;;;;;;20.38;12.10;;;;;;;;;;5095570;28;20020;-60
2022/01/07 00:50:11;;;;;;;23.38;13.57;;;;;;;;;;5095051;28;20474;-60
2022/01/07 00:52:37;;;;;;;25.17;12.85;;;;;;;;;;5095548;28;20100;-60
2022/01/07 00:55:04;;;;;;;21.23;12.05;;;;;;;;;;5095530;28;20024;-59
2022/01/07 00:57:30;;;;;;;20.70;12.52;;;;;;;;;;5094853;28;20031;-59
2022/01/07 00:59:56;;;;;;;23.10;11.80;;;;;;;;;;5095050;28;20020;-60
2022/01/07 01:02:22;;;;;;;22.38;12.25;;;;;;;;;;5087704;28;20035;-61
2022/01/07 01:04:49;;;;;;;21.25;9.57;;;;;;;;;;5074846;28;20371;-60
2022/01/07 01:07:15;;;;;;;24.25;13.32;;;;;;;;;;5075047;28;20024;-60
2022/01/07 01:09:42;;;;;;;18.17;9.88;;;;;;;;;;5074728;28;20028;-60
2022/01/07 01:12:09;;;;;;;18.50;9.75;;;;;;;;;;5074688;28;20020;-60
2022/01/07 01:14:35;;;;;;;27.05;12.73;;;;;;;;;;5074603;28;20039;-60
2022/01/07 01:17:01;;;;;;;19.38;10.50;;;;;;;;;;5074871;28;20017;-60
2022/01/07 01:19:28;;;;;;;22.73;12.18;;;;;;;;;;5074541;28;20040;-60
2022/01/07 01:21:54;;;;;;;23.95;12.05;;;;;;;;;;5074984;28;20029;-61
2022/01/07 01:24:21;;;;;;;31.08;15.02;;;;;;;;;;5074793;28;20052;-60
2022/01/07 01:26:47;;;;;;;29.83;14.57;;;;;;;;;;5074246;28;20104;-60
2022/01/07 01:29:13;;;;;;;26.67;14.15;;;;;;;;;;5074816;28;20042;-60
2022/01/07 01:31:39;;;;;;;36.58;17.55;;;;;;;;;;5074049;28;20036;-60
2022/01/07 01:34:05;;;;;;;32.78;16.52;;;;;;;;;;5074607;28;20046;-60
2022/01/07 01:36:32;;;;;;;29.63;15.60;;;;;;;;;;5074484;28;20020;-60
2022/01/07 01:38:59;;;;;;;31.55;15.35;;;;;;;;;;5074419;28;20055;-60
2022/01/07 01:41:25;;;;;;;29.45;15.15;;;;;;;;;;5073521;28;20039;-60
2022/01/07 01:43:51;;;;;;;31.73;15.43;;;;;;;;;;5074077;28;20020;-61
2022/01/07 01:46:18;;;;;;;28.65;15.23;;;;;;;;;;5073744;28;20032;-61
2022/01/07 01:48:45;;;;;;;28.75;16.15;;;;;;;;;;5074218;28;20023;-61
2022/01/07 01:51:20;;;;;;;25.42;13.60;;;;;;;;;;5073778;28;20048;-63
2022/01/07 01:53:48;;;;;;;27.48;13.48;;;;;;;;;;5074106;28;20398;-59
2022/01/07 01:56:14;;;;;;;25.20;12.90;;;;;;;;;;5074256;28;20379;-59
2022/01/07 01:58:40;;;;;;;23.38;11.75;;;;;;;;;;5073721;28;20029;-61
2022/01/07 02:01:07;;;;;;;25.35;12.48;;;;;;;;;;5073666;28;20234;-59
2022/01/07 02:03:33;;;;;;;25.20;11.85;;;;;;;;;;5073852;28;20035;-60
2022/01/07 02:05:59;;;;;;;24.92;11.30;;;;;;;;;;5073846;28;20021;-60
2022/01/07 02:08:25;;;;;;;22.35;11.05;;;;;;;;;;5073802;28;20032;-60
2022/01/07 02:10:51;;;;;;;20.13;10.43;;;;;;;;;;5073748;28;20031;-60
2022/01/07 02:13:18;;;;;;;20.25;11.35;;;;;;;;;;5076024;28;20021;-60
2022/01/07 02:15:44;;;;;;;20.65;11.05;;;;;;;;;;5092927;28;20024;-60
2022/01/07 02:18:11;;;;;;;17.40;10.32;;;;;;;;;;5093767;28;20521;-61
2022/01/07 02:20:37;;;;;;;22.05;10.93;;;;;;;;;;5093283;28;20116;-60
2022/01/07 02:23:03;;;;;;;25.20;11.80;;;;;;;;;;5093920;28;20047;-59
2022/01/07 02:25:30;;;;;;;26.00;14.93;;;;;;;;;;5094046;28;20030;-60
2022/01/07 02:27:56;;;;;;;28.10;16.00;;;;;;;;;;5093560;28;20043;-61
2022/01/07 02:30:27;;;;;;;30.27;17.13;;;;;;;;;;5093745;28;20359;-61
2022/01/07 02:32:53;;;;;;;28.57;16.73;;;;;;;;;;5089855;28;20069;-60
2022/01/07 02:35:20;;;;;;;28.00;15.43;;;;;;;;;;5093576;28;20024;-60
2022/01/07 02:37:47;;;;;;;28.30;15.32;;;;;;;;;;5093687;28;20024;-60
2022/01/07 02:40:13;;;;;;;24.55;14.70;;;;;;;;;;5093280;28;20024;-60
2022/01/07 02:42:39;;;;;;;24.35;14.32;;;;;;;;;;5086837;28;20024;-61
2022/01/07 02:45:08;;;;;;;25.42;13.90;;;;;;;;;;5073336;28;20024;-61
2022/01/07 02:47:54;;;;;;;26.00;13.50;;;;;;;;;;5073103;28;20499;-59
2022/01/07 02:50:27;;;;;;;26.13;13.80;;;;;;;;;;5073074;28;20029;-61
2022/01/07 02:52:53;;;;;;;24.33;13.57;;;;;;;;;;5072648;28;20044;-61
2022/01/07 02:55:20;;;;;;;25.75;13.98;;;;;;;;;;5072967;28;20027;-61
2022/01/07 02:57:46;;;;;;;28.35;13.77;;;;;;;;;;5073261;28;20043;-60
2022/01/07 03:00:13;;;;;;;25.42;13.15;;;;;;;;;;5073191;28;20047;-60
2022/01/07 03:02:40;;;;;;;26.42;14.43;;;;;;;;;;5082775;28;20016;-60
2022/01/07 03:05:06;;;;;;;24.50;13.60;;;;;;;;;;5093420;28;20479;-60
2022/01/07 03:07:35;;;;;;;23.08;12.85;;;;;;;;;;5093126;28;20107;-60
2022/01/07 03:10:01;;;;;;;21.63;12.55;;;;;;;;;;5093134;28;20462;-60
2022/01/07 03:12:27;;;;;;;21.33;12.18;;;;;;;;;;5093306;28;20063;-60
2022/01/07 03:14:54;;;;;;;21.50;12.38;;;;;;;;;;5093356;28;20486;-60
2022/01/07 03:17:20;;;;;;;22.58;11.93;;;;;;;;;;5092845;28;20032;-60
2022/01/07 03:19:46;;;;;;;21.48;12.45;;;;;;;;;;5093241;28;20020;-60
2022/01/07 03:22:12;;;;;;;23.00;12.68;;;;;;;;;;5093281;28;20016;-60
2022/01/07 03:24:38;;;;;;;23.90;12.30;;;;;;;;;;5092822;28;20065;-60
2022/01/07 03:27:05;;;;;;;21.02;12.00;;;;;;;;;;5092872;28;20027;-60
2022/01/07 03:29:31;;;;;;;22.83;12.63;;;;;;;;;;5092884;28;20393;-61
2022/01/07 03:31:57;;;;;;;24.73;12.88;;;;;;;;;;5088777;28;20386;-60
2022/01/07 03:34:23;;;;;;;27.63;15.05;;;;;;;;;;5073068;28;20031;-60
2022/01/07 03:36:50;;;;;;;25.55;14.45;;;;;;;;;;5073032;28;20328;-60
2022/01/07 03:39:16;;;;;;;27.27;15.23;;;;;;;;;;5072388;28;20386;-60
2022/01/07 03:41:42;;;;;;;24.30;13.00;;;;;;;;;;5073006;28;20355;-60
2022/01/07 03:44:09;;;;;;;20.67;12.50;;;;;;;;;;5072970;28;20032;-60
2022/01/07 03:46:35;;;;;;;18.50;11.38;;;;;;;;;;5072445;28;20035;-60
2022/01/07 03:49:01;;;;;;;21.33;12.13;;;;;;;;;;5072947;28;20017;-59
2022/01/07 03:51:27;;;;;;;24.00;10.50;;;;;;;;;;5072147;28;20129;-60
2022/01/07 03:53:53;;;;;;;21.48;11.43;;;;;;;;;;5072345;28;20025;-61
2022/01/07 03:56:20;;;;;;;18.60;11.10;;;;;;;;;;5072895;28;20021;-60
2022/01/07 03:58:47;;;;;;;21.25;10.85;;;;;;;;;;5072530;28;20100;-60
2022/01/07 04:01:13;;;;;;;21.27;12.38;;;;;;;;;;5072503;28;20036;-60
2022/01/07 04:03:39;;;;;;;23.58;12.93;;;;;;;;;;5073370;28;20031;-60
2022/01/07 04:06:05;;;;;;;28.40;13.40;;;;;;;;;;5075982;28;20366;-61
2022/01/07 04:08:32;;;;;;;29.95;15.52;;;;;;;;;;5076444;28;20122;-60
2022/01/07 04:10:58;;;;;;;32.22;16.10;;;;;;;;;;5076147;28;20482;-60
2022/01/07 04:13:24;;;;;;;31.20;16.45;;;;;;;;;;5075518;28;20500;-60
2022/01/07 04:15:50;;;;;;;30.33;17.48;;;;;;;;;;5075828;28;20474;-60
2022/01/07 04:18:16;;;;;;;38.75;19.75;;;;;;;;;;5075860;28;20024;-61
2022/01/07 04:20:42;;;;;;;34.22;17.80;;;;;;;;;;5075358;28;20032;-59
2022/01/07 04:23:09;;;;;;;31.90;18.25;;;;;;;;;;5075662;28;20020;-60
2022/01/07 04:25:35;;;;;;;31.58;17.38;;;;;;;;;;5076172;28;20052;-61
2022/01/07 04:28:03;;;;;;;28.80;17.50;;;;;;;;;;5075571;28;20025;-60
2022/01/07 04:30:32;;;;;;;31.73;17.67;;;;;;;;;;5075994;28;20062;-61
2022/01/07 04:32:59;;;;;;;34.72;17.73;;;;;;;;;;5087796;28;20052;-60
2022/01/07 04:35:25;;;;;;;28.75;16.95;;;;;;;;;;5095734;28;20024;-60
2022/01/07 04:37:51;;;;;;;28.08;14.85;;;;;;;;;;5096533;28;20058;-60
2022/01/07 04:40:18;;;;;;;25.65;14.35;;;;;;;;;;5095670;28;20034;-60
2022/01/07 04:42:44;;;;;;;23.08;12.52;;;;;;;;;;5095555;28;20031;-60
2022/01/07 04:45:11;;;;;;;21.17;11.77;;;;;;;;;;5095829;28;20365;-60
2022/01/07 04:47:38;;;;;;;25.60;11.90;;;;;;;;;;5095530;28;20031;-61
2022/01/07 04:50:05;;;;;;;22.83;10.88;;;;;;;;;;5095707;28;20032;-60
2022/01/07 04:52:31;;;;;;;25.60;10.57;;;;;;;;;;5095851;28;20531;-60
2022/01/07 04:54:58;;;;;;;19.75;8.45;;;;;;;;;;5095323;28;20024;-60
2022/01/07 04:57:24;;;;;;;17.20;8.60;;;;;;;;;;5095527;28;20375;-60
2022/01/07 04:59:50;;;;;;;10.07;6.35;;;;;;;;;;5094863;28;20020;-60
2022/01/07 05:02:19;;;;;;;20.48;10.40;;;;;;;;;;5094738;28;20090;-59
2022/01/07 05:04:45;;;;;;;20.33;11.10;;;;;;;;;;5095299;28;20053;-59
2022/01/07 05:07:12;;;;;;;22.48;12.68;;;;;;;;;;5095398;28;20032;-61
2022/01/07 05:09:38;;;;;;;15.65;9.63;;;;;;;;;;5095274;28;20374;-60
2022/01/07 05:12:04;;;;;;;27.33;16.08;;;;;;;;;;5094964;28;20470;-61
2022/01/07 05:14:36;;;;;;;23.60;12.35;;;;;;;;;;5094768;28;20069;-60
2022/01/07 05:17:08;;;;;;;25.38;11.65;;;;;;;;;;5090981;28;20104;-60
2022/01/07 05:19:45;;;;;;;20.58;11.00;;;;;;;;;;5073126;28;20025;-61
2022/01/07 05:22:12;;;;;;;30.88;14.80;;;;;;;;;;5074446;28;20032;-59
2022/01/07 05:24:40;;;;;;;28.48;15.20;;;;;;;;;;5073914;28;20021;-60
2022/01/07 05:27:07;;;;;;;31.45;15.85;;;;;;;;;;5073500;28;20086;-60
2022/01/07 05:29:39;;;;;;;29.42;13.70;;;;;;;;;;5074374;28;20028;-60
2022/01/07 05:32:06;;;;;;;47.08;24.77;;;;;;;;;;5074089;28;20502;-60
2022/01/07 05:34:33;;;;;;;61.38;32.33;;;;;;;;;;5073824;28;20023;-60
2022/01/07 05:36:59;;;;;;;33.55;17.17;;;;;;;;;;5072017;28;20020;-60
2022/01/07 05:39:26;;;;;;;28.23;13.93;;;;;;;;;;5072901;28;20017;-61
2022/01/07 05:41:52;;;;;;;34.15;18.60;;;;;;;;;;5073980;28;20078;-60
2022/01/07 05:44:18;;;;;;;55.20;32.65;;;;;;;;;;5074343;28;20083;-60
2022/01/07 05:46:45;;;;;;;28.98;16.17;;;;;;;;;;5074023;28;20028;-59
2022/01/07 05:49:11;;;;;;;61.00;31.35;;;;;;;;;;5074314;28;20012;-60
2022/01/07 05:51:37;;;;;;;35.15;18.98;;;;;;;;;;5073122;28;20097;-60
2022/01/07 05:54:03;;;;;;;30.80;17.48;;;;;;;;;;5073689;28;20016;-61
2022/01/07 05:56:31;;;;;;;33.25;18.20;;;;;;;;;;5073906;28;20019;-60
2022/01/07 05:58:57;;;;;;;28.75;16.33;;;;;;;;;;5082047;28;20025;-60
2022/01/07 06:01:23;;;;;;;53.72;26.45;;;;;;;;;;5094005;28;20542;-59
2022/01/07 06:03:49;;;;;;;37.38;21.60;;;;;;;;;;5094065;28;20072;-60
2022/01/07 06:06:16;;;;;;;31.33;15.75;;;;;;;;;;5085613;28;20508;-60
2022/01/07 06:08:42;;;;;;;56.80;29.98;;;;;;;;;;5084710;28;20103;-60
2022/01/07 06:11:08;;;;;;;41.63;20.30;;;;;;;;;;5073522;28;20382;-61
2022/01/07 06:13:34;;;;;;;32.65;16.85;;;;;;;;;;5073300;28;20486;-60
2022/01/07 06:16:01;;;;;;;36.85;17.90;;;;;;;;;;5073427;28;20032;-60
2022/01/07 06:18:27;;;;;;;30.67;16.52;;;;;;;;;;5073847;28;20032;-60
2022/01/07 06:20:53;;;;;;;31.42;17.90;;;;;;;;;;5073426;28;20033;-61
2022/01/07 06:23:20;;;;;;;31.25;16.50;;;;;;;;;;5073439;28;20082;-59
2022/01/07 06:25:49;;;;;;;31.48;16.85;;;;;;;;;;5073536;28;20352;-60
2022/01/07 06:28:16;;;;;;;27.67;14.05;;;;;;;;;;5072929;28;20029;-61
2022/01/07 06:30:42;;;;;;;28.70;14.13;;;;;;;;;;5073592;28;20021;-60
2022/01/07 06:33:12;;;;;;;24.17;13.48;;;;;;;;;;5072755;28;20537;-61
2022/01/07 06:35:38;;;;;;;32.60;15.65;;;;;;;;;;5072254;28;20070;-60
2022/01/07 06:38:18;;;;;;;43.33;18.63;;;;;;;;;;5079371;28;20024;-60
2022/01/07 06:40:52;;;;;;;38.83;19.80;;;;;;;;;;5087732;28;20039;-61
2022/01/07 06:43:18;;;;;;;55.30;28.20;;;;;;;;;;5071562;28;20181;-60
2022/01/07 06:45:44;;;;;;;39.83;20.90;;;;;;;;;;5077894;28;20114;-61
2022/01/07 06:48:11;;;;;;;37.50;20.40;;;;;;;;;;5073127;28;20021;-60
2022/01/07 06:50:37;;;;;;;39.97;20.23;;;;;;;;;;5073106;28;20036;-60
2022/01/07 06:53:03;;;;;;;36.80;18.48;;;;;;;;;;5084294;28;20432;-60
2022/01/07 06:55:29;;;;;;;45.85;19.92;;;;;;;;;;5072842;28;20020;-60
2022/01/07 06:57:56;;;;;;;33.70;18.90;;;;;;;;;;5091274;28;20024;-60
2022/01/07 07:00:22;;;;;;;41.97;20.65;;;;;;;;;;5093355;28;20032;-60
2022/01/07 07:02:49;;;;;;;31.83;17.40;;;;;;;;;;5090914;28;20024;-60
2022/01/07 07:05:15;;;;;;;38.15;19.38;;;;;;;;;;5092531;28;20050;-61
2022/01/07 07:07:41;;;;;;;41.30;20.77;;;;;;;;;;5088883;28;20371;-59
2022/01/07 07:10:08;;;;;;;34.65;17.15;;;;;;;;;;5093248;28;20032;-60
2022/01/07 07:12:34;;;;;;;30.25;16.35;;;;;;;;;;5078932;28;20028;-60
2022/01/07 07:15:00;;;;;;;40.03;18.58;;;;;;;;;;5072718;28;20056;-60
2022/01/07 07:17:26;;;;;;;35.30;18.17;;;;;;;;;;5080860;28;20060;-62
2022/01/07 07:19:52;;;;;;;42.75;23.35;;;;;;;;;;5093038;28;20498;-61
2022/01/07 07:22:19;;;;;;;50.30;28.90;;;;;;;;;;5090926;28;20520;-62
2022/01/07 07:24:45;;;;;;;53.83;30.10;;;;;;;;;;5072966;28;20052;-60
2022/01/07 07:27:11;;;;;;;54.92;27.98;;;;;;;;;;5072705;28;20028;-59
2022/01/07 07:29:37;;;;;;;63.28;33.28;;;;;;;;;;5072180;28;20382;-60
2022/01/07 07:32:07;;;;;;;72.18;39.25;;;;;;;;;;5072787;28;20021;-60
2022/01/07 07:34:56;;;;;;;71.07;36.75;;;;;;;;;;5081231;28;20103;-59
2022/01/07 07:37:19;;;;;;;69.05;32.28;;;;;;;;;;5071500;28;20090;-60
2022/01/07 07:39:46;;;;;;;54.35;28.58;;;;;;;;;;5089151;28;20111;-61
2022/01/07 07:42:12;;;;;;;42.67;22.27;;;;;;;;;;5089741;28;20029;-61
2022/01/07 07:44:38;;;;;;;59.90;32.83;;;;;;;;;;5081226;28;20028;-60
2022/01/07 07:47:04;;;;;;;49.63;26.70;;;;;;;;;;5096381;28;20023;-60
2022/01/07 07:49:30;;;;;;;51.47;28.55;;;;;;;;;;5086838;28;20029;-61
2022/01/07 07:51:57;;;;;;;45.70;23.73;;;;;;;;;;5087424;28;20044;-60
2022/01/07 07:54:23;;;;;;;39.83;23.67;;;;;;;;;;5080205;28;20093;-61
2022/01/07 07:56:50;;;;;;;40.55;23.48;;;;;;;;;;5093509;28;20089;-61
2022/01/07 07:59:16;;;;;;;47.72;23.85;;;;;;;;;;5096592;28;20024;-61
2022/01/07 08:01:42;;;;;;;71.72;37.00;;;;;;;;;;5096307;28;20036;-62
2022/01/07 08:04:12;;;;;;;46.97;28.55;;;;;;;;;;5095806;28;20020;-61
2022/01/07 08:06:38;;;;;;;55.58;29.23;;;;;;;;;;5096373;28;20017;-60
2022/01/07 08:09:04;;;;;;;52.38;29.20;;;;;;;;;;5095330;28;20024;-60
2022/01/07 08:11:37;;;;;;;56.55;29.33;;;;;;;;;;5091603;28;20085;-62
2022/01/07 08:16:49;;;;;;;58.92;28.85;;;;;;;;;;5084280;28;20028;-61
2022/01/07 08:19:40;;;;;;;47.90;24.95;;;;;;;;;;5079956;28;20031;-63
2022/01/07 08:22:19;;;;;;;38.42;22.23;;;;;;;;;;5077549;28;20086;-62
2022/01/07 08:24:52;;;;;;;39.78;21.52;;;;;;;;;;5075057;28;20478;-60
2022/01/07 08:27:21;;;;;;;34.67;21.08;;;;;;;;;;5075695;28;20021;-61
2022/01/07 08:29:47;;;;;;;43.03;23.20;;;;;;;;;;5075340;28;20094;-60
2022/01/07 08:34:58;;;;;;;36.47;20.92;;;;;;;;;;5075702;28;20028;-59
2022/01/07 08:37:25;;;;;;;47.80;24.90;;;;;;;;;;5075478;28;20025;-60
2022/01/07 08:39:53;;;;;;;37.28;21.15;;;;;;;;;;5077480;28;20035;-61
2022/01/07 08:42:20;;;;;;;54.50;26.05;;;;;;;;;;5086533;28;20060;-60
2022/01/07 08:44:46;;;;;;;46.33;21.88;;;;;;;;;;5075680;28;20031;-58
2022/01/07 08:47:14;;;;;;;42.28;21.33;;;;;;;;;;5081172;28;20032;-59
2022/01/07 08:49:41;;;;;;;37.42;20.63;;;;;;;;;;5075906;28;20115;-56
2022/01/07 08:52:07;;;;;;;46.15;23.23;;;;;;;;;;5086212;28;20048;-52
2022/01/07 08:54:33;;;;;;;37.53;21.67;;;;;;;;;;5074739;28;20016;-54
2022/01/07 08:56:59;;;;;;;37.13;20.27;;;;;;;;;;5075349;28;20023;-54
2022/01/07 08:59:25;;;;;;;35.53;20.42;;;;;;;;;;5075336;28;20024;-56
2022/01/07 09:01:51;;;;;;;34.50;18.48;;;;;;;;;;5074800;28;20024;-53
2022/01/07 09:04:17;;;;;;;33.40;19.02;;;;;;;;;;5075046;28;20028;-51
2022/01/07 09:06:44;;;;;;;30.75;18.40;;;;;;;;;;5074844;28;20023;-57
2022/01/07 09:09:10;;;;;;;34.85;19.92;;;;;;;;;;5075039;28;20027;-54
2022/01/07 09:11:37;;;;;;;35.05;20.27;;;;;;;;;;5075466;28;20028;-58
2022/01/07 09:14:05;;;;;;;37.42;21.65;;;;;;;;;;5094827;28;20031;-56
2022/01/07 09:16:32;;;;;;;35.10;19.55;;;;;;;;;;5080776;28;20378;-51
2022/01/07 09:19:00;;;;;;;31.08;17.17;;;;;;;;;;5074977;28;20104;-56
2022/01/07 09:21:26;;;;;;;23.15;13.75;;;;;;;;;;5074520;28;20047;-57
2022/01/07 09:23:53;;;;;;;19.63;12.45;;;;;;;;;;5086035;28;20043;-55
2022/01/07 09:26:19;;;;;;;22.75;12.35;;;;;;;;;;5094699;28;20024;-55
2022/01/07 09:28:45;;;;;;;33.47;17.05;;;;;;;;;;5094643;28;20024;-56
2022/01/07 09:31:13;;;;;;;21.35;13.43;;;;;;;;;;5094701;28;20029;-54
2022/01/07 09:33:39;;;;;;;28.73;14.90;;;;;;;;;;5075943;28;20031;-52
2022/01/07 09:36:06;;;;;;;20.35;12.88;;;;;;;;;;5072806;28;20161;-54
2022/01/07 09:38:32;;;;;;;21.35;13.30;;;;;;;;;;5079731;28;20020;-54
2022/01/07 09:40:59;;;;;;;23.83;13.40;;;;;;;;;;5094648;28;20032;-55
2022/01/07 09:43:26;;;;;;;21.10;13.65;;;;;;;;;;5077687;28;20047;-59
2022/01/07 09:45:52;;;;;;;20.15;12.43;;;;;;;;;;5080922;28;20024;-55
2022/01/07 09:48:18;;;;;;;21.77;13.15;;;;;;;;;;5093212;28;20035;-52
2022/01/07 09:50:45;;;;;;;19.70;11.13;;;;;;;;;;5077421;28;20386;-53
2022/01/07 09:53:13;;;;;;;42.90;25.10;;;;;;;;;;5079032;28;20036;-55
2022/01/07 09:55:40;;;;;;;24.63;12.48;;;;;;;;;;5075486;28;20021;-55
2022/01/07 09:58:07;;;;;;;17.35;11.25;;;;;;;;;;5094360;28;20016;-52
2022/01/07 10:00:46;;;;;;;18.13;12.27;;;;;;;;;;5093883;28;20036;-53
2022/01/07 10:03:14;;;;;;;30.92;16.58;;;;;;;;;;5088651;28;20355;-53
2022/01/07 10:05:50;;;;;;;22.63;13.05;;;;;;;;;;5080887;28;20060;-55
2022/01/07 10:08:29;;;;;;;23.75;12.25;;;;;;;;;;5073693;28;20108;-56
2022/01/07 10:11:13;;;;;;;25.10;12.98;;;;;;;;;;5073477;28;20037;-60
2022/01/07 10:13:40;;;;;;;22.73;13.10;;;;;;;;;;5077567;28;20048;-60
2022/01/07 10:16:17;;;;;;;19.92;11.73;;;;;;;;;;5093983;28;20362;-60
2022/01/07 10:18:44;;;;;;;20.40;12.40;;;;;;;;;;5078614;28;20475;-61
2022/01/07 10:21:11;;;;;;;21.73;11.63;;;;;;;;;;5073082;28;20040;-62
2022/01/07 10:23:37;;;;;;;18.85;11.48;;;;;;;;;;5073336;28;20524;-64
2022/01/07 10:26:03;;;;;;;21.10;12.60;;;;;;;;;;5073610;28;20028;-63
2022/01/07 10:28:34;;;;;;;19.15;11.43;;;;;;;;;;5073131;28;20479;-62
2022/01/07 10:31:13;;;;;;;18.10;11.30;;;;;;;;;;5073296;28;20024;-65
2022/01/07 10:33:41;;;;;;;22.02;11.60;;;;;;;;;;5091116;28;20051;-52
2022/01/07 10:36:07;;;;;;;20.75;11.88;;;;;;;;;;5093887;28;20024;-56
2022/01/07 10:38:34;;;;;;;19.02;11.07;;;;;;;;;;5093134;28;20496;-59
2022/01/07 10:41:00;;;;;;;21.05;12.27;;;;;;;;;;5093403;28;20034;-58
2022/01/07 10:43:33;;;;;;;19.10;10.85;;;;;;;;;;5092337;28;20374;-57
2022/01/07 10:46:01;;;;;;;16.90;10.88;;;;;;;;;;5093047;28;20020;-58
2022/01/07 10:48:46;;;;;;;17.77;10.48;;;;;;;;;;5081085;28;20032;-52
2022/01/07 10:51:14;;;;;;;20.23;10.88;;;;;;;;;;5093976;28;20079;-56
2022/01/07 10:53:47;;;;;;;26.90;12.65;;;;;;;;;;5074334;28;20475;-59
2022/01/07 10:56:14;;;;;;;20.80;12.27;;;;;;;;;;5073005;28;20035;-55
2022/01/07 10:58:49;;;;;;;29.50;15.13;;;;;;;;;;5074290;28;20111;-56
2022/01/07 11:01:21;;;;;;;20.25;12.32;;;;;;;;;;5074090;28;20028;-55
2022/01/07 11:03:52;;;;;;;22.67;15.23;;;;;;;;;;5081254;28;20471;-55
2022/01/07 11:06:18;;;;;;;;;;;;;;;;;;5093432;28;20020;-56
2022/01/07 11:08:44;;;;;;;23.77;13.77;;;;;;;;;;5093029;28;19910;-58
2022/01/07 11:11:11;;;;;;;22.13;12.63;;;;;;;;;;5093518;28;20430;-56
2022/01/07 11:13:38;;;;;;;21.15;12.43;;;;;;;;;;5095370;28;20031;-53
2022/01/07 11:16:05;;;;;;;21.85;12.35;;;;;;;;;;5093830;28;20023;-56
2022/01/07 11:18:32;;;;;;;21.17;11.02;;;;;;;;;;5083414;28;20028;-58
2022/01/07 11:20:59;;;;;;;16.90;10.80;;;;;;;;;;5103531;28;20097;-57
2022/01/07 11:23:26;;;;;;;21.73;11.75;;;;;;;;;;5080875;28;20471;-56
2022/01/07 11:26:01;;;;;;;19.77;12.43;;;;;;;;;;5076839;28;20021;-56
2022/01/07 11:28:28;;;;;;;21.10;12.80;;;;;;;;;;5075079;28;20386;-56
2022/01/07 11:31:04;;;;;;;33.97;19.17;;;;;;;;;;5077152;28;20020;-58
2022/01/07 11:33:30;;;;;;;27.17;16.08;;;;;;;;;;5078207;28;20031;-55
2022/01/07 11:35:57;;;;;;;29.13;16.85;;;;;;;;;;5075454;28;20044;-54
2022/01/07 11:38:33;;;;;;;24.98;14.55;;;;;;;;;;5075872;28;20034;-55
2022/01/07 11:41:00;;;;;;;23.77;14.40;;;;;;;;;;5076507;28;20024;-57
2022/01/07 11:43:31;;;;;;;20.95;13.88;;;;;;;;;;5076551;28;20025;-57
2022/01/07 11:45:59;;;;;;;28.17;16.50;;;;;;;;;;5074053;28;20462;-59
2022/01/07 11:48:27;;;;;;;26.83;16.67;;;;;;;;;;5079240;28;20028;-55
2022/01/07 11:50:54;;;;;;;19.20;13.15;;;;;;;;;;5076079;28;20033;-52
2022/01/07 11:53:20;;;;;;;27.02;15.38;;;;;;;;;;5076180;28;20032;-57
2022/01/07 11:55:47;;;;;;;23.98;14.25;;;;;;;;;;5074888;28;20048;-56
2022/01/07 11:58:14;;;;;;;25.27;14.98;;;;;;;;;;5074980;28;20029;-57
2022/01/07 12:00:52;;;;;;;25.73;15.35;;;;;;;;;;5075254;28;20034;-65
2022/01/07 12:03:35;;;;;;;22.42;13.82;;;;;;;;;;5081400;28;20021;-67
2022/01/07 12:06:25;;;;;;;36.22;20.15;;;;;;;;;;5095319;28;20462;-66
2022/01/07 12:11:28;;;;;;;39.33;24.58;;;;;;;;;;5096511;28;20040;-66
2022/01/07 12:13:54;;;;;;;22.35;14.65;;;;;;;;;;5094889;28;20024;-66
2022/01/07 12:16:25;;;;;;;39.22;25.40;;;;;;;;;;5093187;28;20382;-66
2022/01/07 12:18:51;;;;;;;22.35;14.20;;;;;;;;;;5094609;28;20073;-67
2022/01/07 12:21:19;;;;;;;29.05;18.45;;;;;;;;;;5094325;28;20024;-67
2022/01/07 12:23:46;;;;;;;19.90;13.15;;;;;;;;;;5093080;28;20024;-68
2022/01/07 12:26:12;;;;;;;21.50;13.77;;;;;;;;;;5093051;28;20458;-67
2022/01/07 12:28:45;;;;;;;17.55;12.05;;;;;;;;;;5094406;28;20024;-66
2022/01/07 12:31:12;;;;;;;19.40;12.32;;;;;;;;;;5094883;28;20027;-66
2022/01/07 12:33:49;;;;;;;21.02;13.95;;;;;;;;;;5094713;28;20016;-65
2022/01/07 12:36:35;;;;;;;22.90;14.18;;;;;;;;;;5096434;28;20024;-67
2022/01/07 12:39:02;;;;;;;23.42;15.07;;;;;;;;;;5096468;28;20103;-68
2022/01/07 12:41:28;;;;;;;25.85;15.98;;;;;;;;;;5095623;28;20071;-67
2022/01/07 12:44:10;;;;;;;29.83;17.85;;;;;;;;;;5095423;28;20044;-67
2022/01/07 12:46:37;;;;;;;29.10;17.48;;;;;;;;;;5095961;28;20012;-66
2022/01/07 12:49:03;;;;;;;29.00;16.70;;;;;;;;;;5096123;28;20030;-68
2022/01/07 12:51:34;;;;;;;31.10;18.50;;;;;;;;;;5095007;28;20048;-70
2022/01/07 12:54:15;;;;;;;38.60;22.85;;;;;;;;;;5095821;28;20028;-67
2022/01/07 12:56:48;;;;;;;30.27;19.20;;;;;;;;;;5088584;28;20394;-68
2022/01/07 12:59:18;;;;;;;34.92;20.77;;;;;;;;;;5074803;28;20489;-66
2022/01/07 13:01:46;;;;;;;40.50;22.87;;;;;;;;;;5093140;28;20089;-72
2022/01/07 13:04:14;;;;;;;30.00;18.90;;;;;;;;;;5080337;28;20024;-68
2022/01/07 13:06:52;;;;;;;33.28;19.35;;;;;;;;;;5074637;28;20024;-67
2022/01/07 13:09:21;;;;;;;35.03;20.73;;;;;;;;;;5075016;28;20024;-65
2022/01/07 13:11:55;;;;;;;47.50;28.65;;;;;;;;;;5073537;28;20090;-67
2022/01/07 13:14:22;;;;;;;34.28;21.77;;;;;;;;;;5074829;28;20021;-66
2022/01/07 13:16:55;;;;;;;29.70;19.10;;;;;;;;;;5074886;28;20091;-68
2022/01/07 13:19:22;;;;;;;39.42;24.25;;;;;;;;;;5074398;28;20028;-67
2022/01/07 13:21:51;;;;;;;36.65;23.42;;;;;;;;;;5074562;28;20086;-68
2022/01/07 13:24:19;;;;;;;31.38;18.88;;;;;;;;;;5074944;28;20024;-66
2022/01/07 13:26:51;;;;;;;30.33;18.10;;;;;;;;;;5074512;28;20020;-68
2022/01/07 13:29:22;;;;;;;37.33;23.88;;;;;;;;;;5074279;28;20020;-68
2022/01/07 13:31:50;;;;;;;29.70;18.20;;;;;;;;;;5074777;28;20059;-68
2022/01/07 13:34:26;;;;;;;32.72;19.40;;;;;;;;;;5074488;28;20013;-66
2022/01/07 13:36:53;;;;;;;34.20;20.20;;;;;;;;;;5074635;28;20462;-68
2022/01/07 13:39:20;;;;;;;45.33;27.02;;;;;;;;;;5074359;28;20020;-66
2022/01/07 13:42:00;;;;;;;31.55;18.33;;;;;;;;;;5073878;28;20032;-66
2022/01/07 13:44:27;;;;;;;39.90;21.25;;;;;;;;;;5074565;28;20025;-67
2022/01/07 13:46:58;;;;;;;30.45;18.63;;;;;;;;;;5073450;28;20078;-66
2022/01/07 13:49:24;;;;;;;33.20;20.00;;;;;;;;;;5074450;28;20071;-65
2022/01/07 13:51:52;;;;;;;36.38;20.55;;;;;;;;;;5073812;28;20052;-65
2022/01/07 13:54:20;;;;;;;32.83;18.63;;;;;;;;;;5073984;28;20020;-66
2022/01/07 13:56:58;;;;;;;43.85;24.80;;;;;;;;;;5074251;28;20478;-66
2022/01/07 13:59:25;;;;;;;45.85;26.40;;;;;;;;;;5074169;28;20027;-66
2022/01/07 14:02:00;;;;;;;43.00;21.35;;;;;;;;;;5073465;28;20064;-67
2022/01/07 14:04:45;;;;;;;36.42;21.50;;;;;;;;;;5074178;28;20478;-67
2022/01/07 14:07:23;;;;;;;42.92;22.27;;;;;;;;;;5074040;28;20035;-67
2022/01/07 14:10:02;;;;;;;47.38;25.60;;;;;;;;;;5073764;28;20046;-65
2022/01/07 14:12:28;;;;;;;44.38;24.67;;;;;;;;;;5074232;28;20032;-66
2022/01/07 14:15:04;;;;;;;41.67;23.42;;;;;;;;;;5073376;28;20024;-66
2022/01/07 14:17:31;;;;;;;34.55;20.25;;;;;;;;;;5074189;28;20048;-68
2022/01/07 14:19:57;;;;;;;36.28;21.85;;;;;;;;;;5073621;28;20152;-65
2022/01/07 14:22:24;;;;;;;36.13;21.45;;;;;;;;;;5073385;28;20028;-65
2022/01/07 14:24:51;;;;;;;37.50;20.33;;;;;;;;;;5073867;28;20099;-67
2022/01/07 14:27:27;;;;;;;37.28;21.02;;;;;;;;;;5073513;28;20091;-66
2022/01/07 14:29:53;;;;;;;39.75;22.13;;;;;;;;;;5072566;28;20035;-68
2022/01/07 14:32:20;;;;;;;44.53;24.80;;;;;;;;;;5072669;28;20382;-66